sensor_id;sensor_type;location;lat;lon;timestamp;P1;durP1;ratioP1;P2;durP2;ratioP2
46941;SDS011;32676;52.630;4.896;2024-03-07T00:01:39;50.83;;;24.50;;
46941;SDS011;32676;52.630;4.896;2024-03-07T00:04:08;58.38;;;26.50;;
46941;SDS011;32676;52.630;4.896;2024-03-07T00:06:35;44.90;;;24.98;;
46941;SDS011;32676;52.630;4.896;2024-03-07T00:09:02;51.55;;;25.08;;
46941;SDS011;32676;52.630;4.896;2024-03-07T00:11:28;50.67;;;24.20;;
46941;SDS011;32676;52.630;4.896;2024-03-07T00:13:56;46.30;;;26.08;;
46941;SDS011;32676;52.630;4.896;2024-03-07T00:16:23;47.13;;;25.45;;
46941;SDS011;32676;52.630;4.896;2024-03-07T00:18:50;49.13;;;26.25;;
46941;SDS011;32676;52.630;4.896;2024-03-07T00:21:17;43.42;;;23.10;;
46941;SDS011;32676;52.630;4.896;2024-03-07T00:23:43;52.25;;;24.63;;
46941;SDS011;32676;52.630;4.896;2024-03-07T00:26:10;43.20;;;22.88;;
46941;SDS011;32676;52.630;4.896;2024-03-07T00:28:36;49.55;;;26.98;;
46941;SDS011;32676;52.630;4.896;2024-03-07T00:31:06;43.20;;;23.52;;
46941;SDS011;32676;52.630;4.896;2024-03-07T00:33:33;53.25;;;25.95;;
46941;SDS011;32676;52.630;4.896;2024-03-07T00:36:00;52.47;;;26.05;;
46941;SDS011;32676;52.630;4.896;2024-03-07T00:38:27;53.47;;;26.33;;
46941;SDS011;32676;52.630;4.896;2024-03-07T00:40:54;45.20;;;23.88;;
46941;SDS011;32676;52.630;4.896;2024-03-07T00:43:20;45.97;;;23.02;;
46941;SDS011;32676;52.630;4.896;2024-03-07T00:45:47;52.72;;;27.73;;
46941;SDS011;32676;52.630;4.896;2024-03-07T00:48:16;49.80;;;25.40;;
46941;SDS011;32676;52.630;4.896;2024-03-07T00:50:43;51.20;;;24.92;;
46941;SDS011;32676;52.630;4.896;2024-03-07T00:53:10;49.03;;;25.00;;
46941;SDS011;32676;52.630;4.896;2024-03-07T00:55:36;51.90;;;28.02;;
46941;SDS011;32676;52.630;4.896;2024-03-07T00:58:03;53.53;;;24.88;;
46941;SDS011;32676;52.630;4.896;2024-03-07T01:00:30;50.58;;;25.52;;
46941;SDS011;32676;52.630;4.896;2024-03-07T01:02:57;52.03;;;25.80;;
46941;SDS011;32676;52.630;4.896;2024-03-07T01:05:25;50.78;;;26.00;;
46941;SDS011;32676;52.630;4.896;2024-03-07T01:07:51;52.05;;;25.85;;
46941;SDS011;32676;52.630;4.896;2024-03-07T01:10:18;45.47;;;23.75;;
46941;SDS011;32676;52.630;4.896;2024-03-07T01:12:45;51.15;;;23.83;;
46941;SDS011;32676;52.630;4.896;2024-03-07T01:15:11;45.67;;;24.85;;
46941;SDS011;32676;52.630;4.896;2024-03-07T01:17:40;52.80;;;26.75;;
46941;SDS011;32676;52.630;4.896;2024-03-07T01:20:07;56.40;;;28.25;;
46941;SDS011;32676;52.630;4.896;2024-03-07T01:22:35;48.72;;;27.05;;
46941;SDS011;32676;52.630;4.896;2024-03-07T01:25:02;51.35;;;27.48;;
46941;SDS011;32676;52.630;4.896;2024-03-07T01:27:29;46.05;;;22.73;;
46941;SDS011;32676;52.630;4.896;2024-03-07T01:29:55;55.95;;;24.40;;
46941;SDS011;32676;52.630;4.896;2024-03-07T01:32:22;48.08;;;25.92;;
46941;SDS011;32676;52.630;4.896;2024-03-07T01:34:49;51.47;;;24.35;;
46941;SDS011;32676;52.630;4.896;2024-03-07T01:37:15;55.58;;;28.75;;
46941;SDS011;32676;52.630;4.896;2024-03-07T01:39:43;54.47;;;27.25;;
46941;SDS011;32676;52.630;4.896;2024-03-07T01:42:11;60.83;;;28.35;;
46941;SDS011;32676;52.630;4.896;2024-03-07T01:44:38;61.38;;;28.63;;
46941;SDS011;32676;52.630;4.896;2024-03-07T01:47:05;54.35;;;26.92;;
46941;SDS011;32676;52.630;4.896;2024-03-07T01:49:32;57.75;;;28.90;;
46941;SDS011;32676;52.630;4.896;2024-03-07T01:51:59;47.47;;;26.40;;
46941;SDS011;32676;52.630;4.896;2024-03-07T01:54:26;54.97;;;27.25;;
46941;SDS011;32676;52.630;4.896;2024-03-07T01:56:55;55.10;;;27.05;;
46941;SDS011;32676;52.630;4.896;2024-03-07T01:59:22;49.10;;;24.52;;
46941;SDS011;32676;52.630;4.896;2024-03-07T02:01:49;51.08;;;26.15;;
46941;SDS011;32676;52.630;4.896;2024-03-07T02:04:16;52.90;;;28.05;;
46941;SDS011;32676;52.630;4.896;2024-03-07T02:06:43;62.55;;;28.58;;
46941;SDS011;32676;52.630;4.896;2024-03-07T02:09:09;50.67;;;26.58;;
46941;SDS011;32676;52.630;4.896;2024-03-07T02:11:36;52.55;;;24.88;;
46941;SDS011;32676;52.630;4.896;2024-03-07T02:14:04;56.22;;;26.90;;
46941;SDS011;32676;52.630;4.896;2024-03-07T02:16:31;59.13;;;25.55;;
46941;SDS011;32676;52.630;4.896;2024-03-07T02:18:57;56.92;;;27.80;;
46941;SDS011;32676;52.630;4.896;2024-03-07T02:21:26;63.80;;;31.35;;
46941;SDS011;32676;52.630;4.896;2024-03-07T02:23:52;58.20;;;28.27;;
46941;SDS011;32676;52.630;4.896;2024-03-07T02:26:19;59.63;;;30.60;;
46941;SDS011;32676;52.630;4.896;2024-03-07T02:28:46;54.95;;;29.02;;
46941;SDS011;32676;52.630;4.896;2024-03-07T02:31:12;55.85;;;28.75;;
46941;SDS011;32676;52.630;4.896;2024-03-07T02:33:39;60.35;;;28.65;;
46941;SDS011;32676;52.630;4.896;2024-03-07T02:36:06;60.67;;;26.98;;
46941;SDS011;32676;52.630;4.896;2024-03-07T02:38:35;58.25;;;27.90;;
46941;SDS011;32676;52.630;4.896;2024-03-07T02:41:01;62.10;;;29.95;;
46941;SDS011;32676;52.630;4.896;2024-03-07T02:43:28;58.92;;;27.52;;
46941;SDS011;32676;52.630;4.896;2024-03-07T02:45:54;55.63;;;27.42;;
46941;SDS011;32676;52.630;4.896;2024-03-07T02:48:21;66.05;;;30.35;;
46941;SDS011;32676;52.630;4.896;2024-03-07T02:50:48;65.10;;;28.55;;
46941;SDS011;32676;52.630;4.896;2024-03-07T02:53:15;59.33;;;27.98;;
46941;SDS011;32676;52.630;4.896;2024-03-07T02:55:43;55.33;;;26.88;;
46941;SDS011;32676;52.630;4.896;2024-03-07T02:58:10;55.88;;;28.52;;
46941;SDS011;32676;52.630;4.896;2024-03-07T03:00:36;56.05;;;28.48;;
46941;SDS011;32676;52.630;4.896;2024-03-07T03:03:03;54.47;;;25.98;;
46941;SDS011;32676;52.630;4.896;2024-03-07T03:05:30;55.70;;;30.30;;
46941;SDS011;32676;52.630;4.896;2024-03-07T03:07:57;58.63;;;30.33;;
46941;SDS011;32676;52.630;4.896;2024-03-07T03:10:25;56.72;;;29.27;;
46941;SDS011;32676;52.630;4.896;2024-03-07T03:12:55;56.83;;;28.83;;
46941;SDS011;32676;52.630;4.896;2024-03-07T03:15:22;60.95;;;29.08;;
46941;SDS011;32676;52.630;4.896;2024-03-07T03:17:49;62.40;;;32.08;;
46941;SDS011;32676;52.630;4.896;2024-03-07T03:20:17;58.22;;;29.05;;
46941;SDS011;32676;52.630;4.896;2024-03-07T03:22:51;65.88;;;28.55;;
46941;SDS011;32676;52.630;4.896;2024-03-07T03:25:18;54.25;;;29.23;;
46941;SDS011;32676;52.630;4.896;2024-03-07T03:27:45;42.80;;;24.55;;
46941;SDS011;32676;52.630;4.896;2024-03-07T03:30:13;54.13;;;26.10;;
46941;SDS011;32676;52.630;4.896;2024-03-07T03:32:43;51.17;;;28.58;;
46941;SDS011;32676;52.630;4.896;2024-03-07T03:35:11;54.40;;;27.10;;
46941;SDS011;32676;52.630;4.896;2024-03-07T03:37:38;50.95;;;27.98;;
46941;SDS011;32676;52.630;4.896;2024-03-07T03:40:06;52.85;;;28.23;;
46941;SDS011;32676;52.630;4.896;2024-03-07T03:42:34;63.08;;;28.63;;
46941;SDS011;32676;52.630;4.896;2024-03-07T03:45:02;54.60;;;28.83;;
46941;SDS011;32676;52.630;4.896;2024-03-07T03:47:32;63.30;;;32.33;;
46941;SDS011;32676;52.630;4.896;2024-03-07T03:50:00;58.78;;;29.38;;
46941;SDS011;32676;52.630;4.896;2024-03-07T03:52:28;54.30;;;28.23;;
46941;SDS011;32676;52.630;4.896;2024-03-07T03:54:55;60.50;;;29.70;;
46941;SDS011;32676;52.630;4.896;2024-03-07T03:57:22;56.15;;;25.85;;
46941;SDS011;32676;52.630;4.896;2024-03-07T03:59:49;60.28;;;28.55;;
46941;SDS011;32676;52.630;4.896;2024-03-07T04:02:15;65.22;;;31.27;;
46941;SDS011;32676;52.630;4.896;2024-03-07T04:04:44;58.55;;;29.25;;
46941;SDS011;32676;52.630;4.896;2024-03-07T04:07:11;61.60;;;29.88;;
46941;SDS011;32676;52.630;4.896;2024-03-07T04:09:38;53.63;;;28.70;;
46941;SDS011;32676;52.630;4.896;2024-03-07T04:12:05;52.75;;;27.08;;
46941;SDS011;32676;52.630;4.896;2024-03-07T04:14:32;58.88;;;32.28;;
46941;SDS011;32676;52.630;4.896;2024-03-07T04:16:58;56.28;;;31.40;;
46941;SDS011;32676;52.630;4.896;2024-03-07T04:19:27;59.92;;;29.02;;
46941;SDS011;32676;52.630;4.896;2024-03-07T04:21:57;68.82;;;32.25;;
46941;SDS011;32676;52.630;4.896;2024-03-07T04:24:24;60.72;;;30.75;;
46941;SDS011;32676;52.630;4.896;2024-03-07T04:26:51;66.07;;;31.95;;
46941;SDS011;32676;52.630;4.896;2024-03-07T04:29:18;59.47;;;29.65;;
46941;SDS011;32676;52.630;4.896;2024-03-07T04:31:45;60.42;;;30.67;;
46941;SDS011;32676;52.630;4.896;2024-03-07T04:34:11;56.75;;;31.00;;
46941;SDS011;32676;52.630;4.896;2024-03-07T04:36:38;52.17;;;27.88;;
46941;SDS011;32676;52.630;4.896;2024-03-07T04:39:07;59.47;;;30.73;;
46941;SDS011;32676;52.630;4.896;2024-03-07T04:41:49;57.60;;;31.20;;
46941;SDS011;32676;52.630;4.896;2024-03-07T04:44:17;66.10;;;31.70;;
46941;SDS011;32676;52.630;4.896;2024-03-07T04:46:47;61.30;;;30.95;;
46941;SDS011;32676;52.630;4.896;2024-03-07T04:49:14;60.58;;;30.17;;
46941;SDS011;32676;52.630;4.896;2024-03-07T04:51:41;57.97;;;29.63;;
46941;SDS011;32676;52.630;4.896;2024-03-07T04:54:09;62.08;;;31.27;;
46941;SDS011;32676;52.630;4.896;2024-03-07T04:56:36;58.30;;;29.20;;
46941;SDS011;32676;52.630;4.896;2024-03-07T04:59:02;62.50;;;31.88;;
46941;SDS011;32676;52.630;4.896;2024-03-07T05:01:29;65.65;;;30.35;;
46941;SDS011;32676;52.630;4.896;2024-03-07T05:03:56;58.13;;;31.48;;
46941;SDS011;32676;52.630;4.896;2024-03-07T05:06:22;63.80;;;32.03;;
46941;SDS011;32676;52.630;4.896;2024-03-07T05:08:49;66.65;;;32.20;;
46941;SDS011;32676;52.630;4.896;2024-03-07T05:11:17;63.70;;;30.13;;
46941;SDS011;32676;52.630;4.896;2024-03-07T05:13:44;57.90;;;29.10;;
46941;SDS011;32676;52.630;4.896;2024-03-07T05:16:11;62.42;;;31.75;;
46941;SDS011;32676;52.630;4.896;2024-03-07T05:18:37;58.50;;;29.60;;
46941;SDS011;32676;52.630;4.896;2024-03-07T05:21:04;57.10;;;32.05;;
46941;SDS011;32676;52.630;4.896;2024-03-07T05:23:54;62.25;;;30.33;;
46941;SDS011;32676;52.630;4.896;2024-03-07T05:26:22;69.93;;;30.23;;
46941;SDS011;32676;52.630;4.896;2024-03-07T05:28:49;62.10;;;29.08;;
46941;SDS011;32676;52.630;4.896;2024-03-07T05:31:16;59.08;;;28.15;;
46941;SDS011;32676;52.630;4.896;2024-03-07T05:33:45;58.53;;;28.15;;
46941;SDS011;32676;52.630;4.896;2024-03-07T05:36:11;53.10;;;27.38;;
46941;SDS011;32676;52.630;4.896;2024-03-07T05:38:41;56.55;;;28.80;;
46941;SDS011;32676;52.630;4.896;2024-03-07T05:41:09;53.33;;;27.95;;
46941;SDS011;32676;52.630;4.896;2024-03-07T05:43:39;47.95;;;26.77;;
46941;SDS011;32676;52.630;4.896;2024-03-07T05:46:06;58.30;;;26.42;;
46941;SDS011;32676;52.630;4.896;2024-03-07T05:48:35;58.22;;;27.67;;
46941;SDS011;32676;52.630;4.896;2024-03-07T05:51:02;50.28;;;27.88;;
46941;SDS011;32676;52.630;4.896;2024-03-07T05:53:29;54.15;;;28.98;;
46941;SDS011;32676;52.630;4.896;2024-03-07T05:55:57;44.55;;;23.63;;
46941;SDS011;32676;52.630;4.896;2024-03-07T05:58:24;48.25;;;24.38;;
46941;SDS011;32676;52.630;4.896;2024-03-07T06:00:52;50.70;;;24.42;;
46941;SDS011;32676;52.630;4.896;2024-03-07T06:03:19;58.17;;;28.90;;
46941;SDS011;32676;52.630;4.896;2024-03-07T06:05:45;52.97;;;23.83;;
46941;SDS011;32676;52.630;4.896;2024-03-07T06:08:14;50.05;;;27.92;;
46941;SDS011;32676;52.630;4.896;2024-03-07T06:10:42;53.28;;;26.48;;
46941;SDS011;32676;52.630;4.896;2024-03-07T06:13:08;50.80;;;25.55;;
46941;SDS011;32676;52.630;4.896;2024-03-07T06:15:36;60.75;;;27.95;;
46941;SDS011;32676;52.630;4.896;2024-03-07T06:18:05;58.33;;;28.25;;
46941;SDS011;32676;52.630;4.896;2024-03-07T06:20:33;50.17;;;24.83;;
46941;SDS011;32676;52.630;4.896;2024-03-07T06:23:00;51.08;;;26.77;;
46941;SDS011;32676;52.630;4.896;2024-03-07T06:25:29;49.05;;;25.25;;
46941;SDS011;32676;52.630;4.896;2024-03-07T06:28:01;56.83;;;26.40;;
46941;SDS011;32676;52.630;4.896;2024-03-07T06:30:35;49.00;;;23.73;;
46941;SDS011;32676;52.630;4.896;2024-03-07T06:33:02;48.17;;;24.77;;
46941;SDS011;32676;52.630;4.896;2024-03-07T06:35:30;53.13;;;25.83;;
46941;SDS011;32676;52.630;4.896;2024-03-07T06:37:57;50.20;;;24.55;;
46941;SDS011;32676;52.630;4.896;2024-03-07T06:40:23;45.78;;;24.58;;
46941;SDS011;32676;52.630;4.896;2024-03-07T06:42:50;49.05;;;25.77;;
46941;SDS011;32676;52.630;4.896;2024-03-07T06:45:17;49.05;;;25.63;;
46941;SDS011;32676;52.630;4.896;2024-03-07T06:47:44;49.38;;;24.95;;
46941;SDS011;32676;52.630;4.896;2024-03-07T06:50:12;54.55;;;24.70;;
46941;SDS011;32676;52.630;4.896;2024-03-07T06:52:42;46.08;;;23.92;;
46941;SDS011;32676;52.630;4.896;2024-03-07T06:55:09;48.08;;;26.30;;
46941;SDS011;32676;52.630;4.896;2024-03-07T06:57:36;49.28;;;25.98;;
46941;SDS011;32676;52.630;4.896;2024-03-07T07:00:04;48.65;;;24.20;;
46941;SDS011;32676;52.630;4.896;2024-03-07T07:02:36;50.25;;;26.27;;
46941;SDS011;32676;52.630;4.896;2024-03-07T07:05:04;47.05;;;23.95;;
46941;SDS011;32676;52.630;4.896;2024-03-07T07:07:35;49.47;;;23.55;;
46941;SDS011;32676;52.630;4.896;2024-03-07T07:10:04;47.67;;;22.98;;
46941;SDS011;32676;52.630;4.896;2024-03-07T07:12:33;42.85;;;23.20;;
46941;SDS011;32676;52.630;4.896;2024-03-07T07:15:00;40.65;;;22.92;;
46941;SDS011;32676;52.630;4.896;2024-03-07T07:17:28;47.45;;;24.42;;
46941;SDS011;32676;52.630;4.896;2024-03-07T07:19:55;41.70;;;21.75;;
46941;SDS011;32676;52.630;4.896;2024-03-07T07:22:23;44.60;;;23.13;;
46941;SDS011;32676;52.630;4.896;2024-03-07T07:24:50;44.60;;;21.58;;
46941;SDS011;32676;52.630;4.896;2024-03-07T07:27:18;47.35;;;23.58;;
46941;SDS011;32676;52.630;4.896;2024-03-07T07:29:45;44.90;;;23.95;;
46941;SDS011;32676;52.630;4.896;2024-03-07T07:32:11;43.45;;;23.83;;
46941;SDS011;32676;52.630;4.896;2024-03-07T07:34:38;43.70;;;21.50;;
46941;SDS011;32676;52.630;4.896;2024-03-07T07:37:05;34.40;;;20.75;;
46941;SDS011;32676;52.630;4.896;2024-03-07T07:39:31;47.33;;;23.38;;
46941;SDS011;32676;52.630;4.896;2024-03-07T07:41:58;39.95;;;23.17;;
46941;SDS011;32676;52.630;4.896;2024-03-07T07:44:26;44.05;;;22.40;;
46941;SDS011;32676;52.630;4.896;2024-03-07T07:46:54;50.35;;;23.02;;
46941;SDS011;32676;52.630;4.896;2024-03-07T07:49:21;42.67;;;21.65;;
46941;SDS011;32676;52.630;4.896;2024-03-07T07:51:47;41.60;;;20.63;;
46941;SDS011;32676;52.630;4.896;2024-03-07T07:54:14;45.30;;;21.60;;
46941;SDS011;32676;52.630;4.896;2024-03-07T07:56:41;37.92;;;21.05;;
46941;SDS011;32676;52.630;4.896;2024-03-07T07:59:08;45.63;;;21.38;;
46941;SDS011;32676;52.630;4.896;2024-03-07T08:01:37;52.20;;;24.10;;
46941;SDS011;32676;52.630;4.896;2024-03-07T08:04:04;33.22;;;20.00;;
46941;SDS011;32676;52.630;4.896;2024-03-07T08:06:31;39.22;;;20.42;;
46941;SDS011;32676;52.630;4.896;2024-03-07T08:08:58;37.63;;;20.70;;
46941;SDS011;32676;52.630;4.896;2024-03-07T08:11:24;39.63;;;20.20;;
46941;SDS011;32676;52.630;4.896;2024-03-07T08:13:52;34.80;;;19.45;;
46941;SDS011;32676;52.630;4.896;2024-03-07T08:16:20;38.67;;;21.05;;
46941;SDS011;32676;52.630;4.896;2024-03-07T08:18:50;43.90;;;19.13;;
46941;SDS011;32676;52.630;4.896;2024-03-07T08:21:17;39.33;;;21.25;;
46941;SDS011;32676;52.630;4.896;2024-03-07T08:23:43;32.05;;;17.55;;
46941;SDS011;32676;52.630;4.896;2024-03-07T08:26:11;32.72;;;17.27;;
46941;SDS011;32676;52.630;4.896;2024-03-07T08:28:37;30.70;;;17.02;;
46941;SDS011;32676;52.630;4.896;2024-03-07T08:31:04;33.40;;;17.95;;
46941;SDS011;32676;52.630;4.896;2024-03-07T08:33:31;31.88;;;17.88;;
46941;SDS011;32676;52.630;4.896;2024-03-07T08:36:01;33.83;;;15.98;;
46941;SDS011;32676;52.630;4.896;2024-03-07T08:38:27;32.17;;;17.60;;
46941;SDS011;32676;52.630;4.896;2024-03-07T08:40:54;34.42;;;17.75;;
46941;SDS011;32676;52.630;4.896;2024-03-07T08:43:21;25.90;;;14.80;;
46941;SDS011;32676;52.630;4.896;2024-03-07T08:45:48;27.13;;;15.73;;
46941;SDS011;32676;52.630;4.896;2024-03-07T08:48:15;32.75;;;17.02;;
46941;SDS011;32676;52.630;4.896;2024-03-07T08:50:41;30.08;;;15.98;;
46941;SDS011;32676;52.630;4.896;2024-03-07T08:53:09;27.38;;;15.98;;
46941;SDS011;32676;52.630;4.896;2024-03-07T08:55:36;29.80;;;16.55;;
46941;SDS011;32676;52.630;4.896;2024-03-07T08:58:02;29.13;;;15.90;;
46941;SDS011;32676;52.630;4.896;2024-03-07T09:00:31;26.73;;;15.10;;
46941;SDS011;32676;52.630;4.896;2024-03-07T09:02:59;23.42;;;14.55;;
46941;SDS011;32676;52.630;4.896;2024-03-07T09:05:28;23.02;;;13.50;;
46941;SDS011;32676;52.630;4.896;2024-03-07T09:07:58;30.00;;;14.25;;
46941;SDS011;32676;52.630;4.896;2024-03-07T09:10:26;26.70;;;15.45;;
46941;SDS011;32676;52.630;4.896;2024-03-07T09:12:54;23.33;;;13.80;;
46941;SDS011;32676;52.630;4.896;2024-03-07T09:15:22;27.33;;;14.00;;
46941;SDS011;32676;52.630;4.896;2024-03-07T09:17:48;22.40;;;13.05;;
46941;SDS011;32676;52.630;4.896;2024-03-07T09:20:15;21.95;;;13.70;;
46941;SDS011;32676;52.630;4.896;2024-03-07T09:22:43;23.35;;;13.50;;
46941;SDS011;32676;52.630;4.896;2024-03-07T09:25:12;25.88;;;13.18;;
46941;SDS011;32676;52.630;4.896;2024-03-07T09:27:40;18.98;;;12.85;;
46941;SDS011;32676;52.630;4.896;2024-03-07T09:30:07;18.70;;;12.35;;
46941;SDS011;32676;52.630;4.896;2024-03-07T09:32:37;20.52;;;11.52;;
46941;SDS011;32676;52.630;4.896;2024-03-07T09:35:05;20.80;;;12.20;;
46941;SDS011;32676;52.630;4.896;2024-03-07T09:37:36;19.70;;;12.38;;
46941;SDS011;32676;52.630;4.896;2024-03-07T09:40:04;23.50;;;12.75;;
46941;SDS011;32676;52.630;4.896;2024-03-07T09:42:32;22.17;;;12.10;;
46941;SDS011;32676;52.630;4.896;2024-03-07T09:45:02;23.27;;;11.93;;
46941;SDS011;32676;52.630;4.896;2024-03-07T09:47:31;20.92;;;13.18;;
46941;SDS011;32676;52.630;4.896;2024-03-07T09:49:58;26.15;;;14.27;;
46941;SDS011;32676;52.630;4.896;2024-03-07T09:52:25;26.85;;;13.27;;
46941;SDS011;32676;52.630;4.896;2024-03-07T09:54:54;32.97;;;13.25;;
46941;SDS011;32676;52.630;4.896;2024-03-07T09:57:21;21.08;;;12.68;;
46941;SDS011;32676;52.630;4.896;2024-03-07T09:59:48;28.80;;;14.75;;
46941;SDS011;32676;52.630;4.896;2024-03-07T10:02:18;24.83;;;13.23;;
46941;SDS011;32676;52.630;4.896;2024-03-07T10:04:47;25.67;;;13.30;;
46941;SDS011;32676;52.630;4.896;2024-03-07T10:07:14;22.33;;;13.18;;
46941;SDS011;32676;52.630;4.896;2024-03-07T10:09:43;26.75;;;12.50;;
46941;SDS011;32676;52.630;4.896;2024-03-07T10:12:10;18.42;;;11.20;;
46941;SDS011;32676;52.630;4.896;2024-03-07T10:14:47;27.08;;;14.30;;
46941;SDS011;32676;52.630;4.896;2024-03-07T10:19:43;20.80;;;10.75;;
46941;SDS011;32676;52.630;4.896;2024-03-07T10:22:13;17.50;;;10.40;;
46941;SDS011;32676;52.630;4.896;2024-03-07T10:24:39;32.80;;;13.40;;
46941;SDS011;32676;52.630;4.896;2024-03-07T10:33:28;19.27;;;10.32;;
46941;SDS011;32676;52.630;4.896;2024-03-07T10:35:59;17.35;;;10.05;;
46941;SDS011;32676;52.630;4.896;2024-03-07T10:38:26;16.25;;;9.77;;
46941;SDS011;32676;52.630;4.896;2024-03-07T10:40:53;15.73;;;9.88;;
46941;SDS011;32676;52.630;4.896;2024-03-07T10:43:21;16.48;;;9.23;;
46941;SDS011;32676;52.630;4.896;2024-03-07T10:45:51;16.10;;;8.82;;
46941;SDS011;32676;52.630;4.896;2024-03-07T10:48:18;14.45;;;7.97;;
46941;SDS011;32676;52.630;4.896;2024-03-07T10:50:49;16.33;;;8.63;;
46941;SDS011;32676;52.630;4.896;2024-03-07T10:53:29;16.90;;;8.90;;
46941;SDS011;32676;52.630;4.896;2024-03-07T10:56:11;18.05;;;9.77;;
46941;SDS011;32676;52.630;4.896;2024-03-07T10:58:47;19.33;;;10.65;;
46941;SDS011;32676;52.630;4.896;2024-03-07T11:01:24;18.30;;;9.25;;
46941;SDS011;32676;52.630;4.896;2024-03-07T11:03:52;18.20;;;9.20;;
46941;SDS011;32676;52.630;4.896;2024-03-07T11:06:22;18.38;;;10.40;;
46941;SDS011;32676;52.630;4.896;2024-03-07T11:08:51;19.27;;;9.52;;
46941;SDS011;32676;52.630;4.896;2024-03-07T11:11:18;21.33;;;10.98;;
46941;SDS011;32676;52.630;4.896;2024-03-07T11:13:45;24.25;;;9.93;;
46941;SDS011;32676;52.630;4.896;2024-03-07T11:16:13;21.92;;;11.30;;
46941;SDS011;32676;52.630;4.896;2024-03-07T11:18:41;18.90;;;10.57;;
46941;SDS011;32676;52.630;4.896;2024-03-07T11:21:07;17.55;;;10.95;;
46941;SDS011;32676;52.630;4.896;2024-03-07T11:24:08;19.00;;;10.52;;
46941;SDS011;32676;52.630;4.896;2024-03-07T11:26:35;22.08;;;11.55;;
46941;SDS011;32676;52.630;4.896;2024-03-07T11:29:04;21.13;;;10.80;;
46941;SDS011;32676;52.630;4.896;2024-03-07T11:32:10;19.13;;;11.68;;
46941;SDS011;32676;52.630;4.896;2024-03-07T11:34:39;20.38;;;11.25;;
46941;SDS011;32676;52.630;4.896;2024-03-07T11:37:09;22.92;;;12.43;;
46941;SDS011;32676;52.630;4.896;2024-03-07T11:39:42;18.05;;;11.55;;
46941;SDS011;32676;52.630;4.896;2024-03-07T11:42:18;23.02;;;13.38;;
46941;SDS011;32676;52.630;4.896;2024-03-07T11:44:46;23.60;;;14.05;;
46941;SDS011;32676;52.630;4.896;2024-03-07T11:47:13;27.85;;;12.82;;
46941;SDS011;32676;52.630;4.896;2024-03-07T11:49:43;19.40;;;10.85;;
46941;SDS011;32676;52.630;4.896;2024-03-07T11:52:14;22.00;;;12.55;;
46941;SDS011;32676;52.630;4.896;2024-03-07T11:54:42;19.65;;;12.27;;
46941;SDS011;32676;52.630;4.896;2024-03-07T11:57:12;24.15;;;13.05;;
46941;SDS011;32676;52.630;4.896;2024-03-07T11:59:39;27.40;;;14.77;;
46941;SDS011;32676;52.630;4.896;2024-03-07T12:02:10;23.50;;;12.73;;
46941;SDS011;32676;52.630;4.896;2024-03-07T12:04:38;23.02;;;13.85;;
46941;SDS011;32676;52.630;4.896;2024-03-07T12:07:06;24.77;;;13.30;;
46941;SDS011;32676;52.630;4.896;2024-03-07T12:09:36;26.17;;;14.27;;
46941;SDS011;32676;52.630;4.896;2024-03-07T12:12:04;32.25;;;14.88;;
46941;SDS011;32676;52.630;4.896;2024-03-07T12:14:32;20.60;;;13.07;;
46941;SDS011;32676;52.630;4.896;2024-03-07T12:16:59;29.25;;;17.45;;
46941;SDS011;32676;52.630;4.896;2024-03-07T12:19:25;27.55;;;14.65;;
46941;SDS011;32676;52.630;4.896;2024-03-07T12:21:56;26.55;;;12.85;;
46941;SDS011;32676;52.630;4.896;2024-03-07T12:24:23;26.67;;;14.00;;
46941;SDS011;32676;52.630;4.896;2024-03-07T12:26:51;25.27;;;13.65;;
46941;SDS011;32676;52.630;4.896;2024-03-07T12:29:24;24.80;;;14.27;;
46941;SDS011;32676;52.630;4.896;2024-03-07T12:31:52;21.63;;;13.57;;
46941;SDS011;32676;52.630;4.896;2024-03-07T12:34:19;25.40;;;14.25;;
46941;SDS011;32676;52.630;4.896;2024-03-07T12:36:46;24.42;;;13.60;;
46941;SDS011;32676;52.630;4.896;2024-03-07T12:39:21;20.65;;;12.57;;
46941;SDS011;32676;52.630;4.896;2024-03-07T12:41:52;26.92;;;15.00;;
46941;SDS011;32676;52.630;4.896;2024-03-07T12:44:20;27.30;;;15.43;;
46941;SDS011;32676;52.630;4.896;2024-03-07T12:46:47;25.38;;;15.32;;
46941;SDS011;32676;52.630;4.896;2024-03-07T12:49:14;29.42;;;16.77;;
46941;SDS011;32676;52.630;4.896;2024-03-07T12:51:41;26.33;;;14.23;;
46941;SDS011;32676;52.630;4.896;2024-03-07T12:54:08;24.52;;;13.57;;
46941;SDS011;32676;52.630;4.896;2024-03-07T12:56:34;28.83;;;15.70;;
46941;SDS011;32676;52.630;4.896;2024-03-07T12:59:03;27.65;;;15.90;;
46941;SDS011;32676;52.630;4.896;2024-03-07T13:01:30;24.77;;;14.32;;
46941;SDS011;32676;52.630;4.896;2024-03-07T13:03:59;29.67;;;16.17;;
46941;SDS011;32676;52.630;4.896;2024-03-07T13:06:26;29.98;;;15.38;;
46941;SDS011;32676;52.630;4.896;2024-03-07T13:08:54;28.70;;;16.27;;
46941;SDS011;32676;52.630;4.896;2024-03-07T13:11:22;27.60;;;17.08;;
46941;SDS011;32676;52.630;4.896;2024-03-07T13:13:52;23.75;;;15.02;;
46941;SDS011;32676;52.630;4.896;2024-03-07T13:16:21;28.95;;;14.50;;
46941;SDS011;32676;52.630;4.896;2024-03-07T13:18:52;32.10;;;14.73;;
46941;SDS011;32676;52.630;4.896;2024-03-07T13:21:19;30.92;;;15.32;;
46941;SDS011;32676;52.630;4.896;2024-03-07T13:23:45;29.85;;;14.50;;
46941;SDS011;32676;52.630;4.896;2024-03-07T13:26:12;30.60;;;16.90;;
46941;SDS011;32676;52.630;4.896;2024-03-07T13:28:45;26.15;;;15.20;;
46941;SDS011;32676;52.630;4.896;2024-03-07T13:31:12;31.15;;;16.02;;
46941;SDS011;32676;52.630;4.896;2024-03-07T13:33:43;28.25;;;15.60;;
46941;SDS011;32676;52.630;4.896;2024-03-07T13:36:11;27.58;;;16.52;;
46941;SDS011;32676;52.630;4.896;2024-03-07T13:38:39;30.83;;;16.77;;
46941;SDS011;32676;52.630;4.896;2024-03-07T13:41:06;24.23;;;14.93;;
46941;SDS011;32676;52.630;4.896;2024-03-07T13:43:32;25.90;;;15.98;;
46941;SDS011;32676;52.630;4.896;2024-03-07T13:45:59;27.33;;;16.40;;
46941;SDS011;32676;52.630;4.896;2024-03-07T13:48:26;26.60;;;16.15;;
46941;SDS011;32676;52.630;4.896;2024-03-07T13:50:54;31.30;;;15.75;;
46941;SDS011;32676;52.630;4.896;2024-03-07T13:53:21;31.75;;;17.83;;
46941;SDS011;32676;52.630;4.896;2024-03-07T13:56:03;28.75;;;17.02;;
46941;SDS011;32676;52.630;4.896;2024-03-07T13:59:00;28.50;;;16.17;;
46941;SDS011;32676;52.630;4.896;2024-03-07T14:01:44;28.73;;;16.50;;
46941;SDS011;32676;52.630;4.896;2024-03-07T14:04:30;33.95;;;15.95;;
46941;SDS011;32676;52.630;4.896;2024-03-07T14:10:27;30.52;;;16.58;;
46941;SDS011;32676;52.630;4.896;2024-03-07T14:13:22;28.27;;;16.63;;
46941;SDS011;32676;52.630;4.896;2024-03-07T14:16:12;27.52;;;14.52;;
46941;SDS011;32676;52.630;4.896;2024-03-07T14:22:18;24.63;;;14.60;;
46941;SDS011;32676;52.630;4.896;2024-03-07T14:28:05;22.88;;;12.88;;
46941;SDS011;32676;52.630;4.896;2024-03-07T14:30:39;27.45;;;14.43;;
46941;SDS011;32676;52.630;4.896;2024-03-07T14:33:09;23.75;;;12.85;;
46941;SDS011;32676;52.630;4.896;2024-03-07T14:38:27;23.25;;;13.50;;
46941;SDS011;32676;52.630;4.896;2024-03-07T14:40:56;28.30;;;14.93;;
46941;SDS011;32676;52.630;4.896;2024-03-07T14:43:23;22.92;;;12.80;;
46941;SDS011;32676;52.630;4.896;2024-03-07T14:45:50;22.58;;;13.23;;
46941;SDS011;32676;52.630;4.896;2024-03-07T14:48:20;24.13;;;12.57;;
46941;SDS011;32676;52.630;4.896;2024-03-07T14:50:47;25.42;;;14.95;;